Ilirska Bistrica, Slovenia

12:53 PM CEST on August 27, 2014 (GMT +0200)
GRADISCE - BRKINI | Change Station
CLOSE
Current Station
Personal Weather Station
Location: HRPELJE - KOZINA, SLOVENIJA
Elevation: 1942 ft
Nearby Weather Stations

Elev 1942 ft 45.55 °N, 14.06 °E | Updated 14 seconds ago

Overcast
Overcast
73.0 °F
Feels Like 75 °F
N
3.1
Wind Variable Wind from WSW
Gusts 4.0 mph

Today
High -- | Low -- °F
--% Chance of Precip.
Yesterday
High -- | Low -- °F
Precip. -- in
6:17 AM 7:50 PM
Waxing Crescent, 3% visible
Pressure 29.83 in
Visibility 6.2 miles
Clouds Few 1300 ft
Few 2700 ft
Scattered Clouds 2700 ft
Mostly Cloudy 3700 ft
Heat Index 75 °F
Dew Point 64 °F
Humidity 73%
Rainfall 0.20 in
Snow Depth Not available.
UV 5 out of 12
Pollen Not available.
Air Quality Not available.
Flu Activity Not available.
METAR LDRI 271030Z 15007KT 120V220 9999 -RA VCSH FEW013 FEW027TCU SCT027 BKN037 21/20 Q1010

More Conditions Fewer Conditions

Pressure 29.83 in
Visibility 6.2 miles
Clouds Few 1300 ft
Few 2700 ft
Scattered Clouds 2700 ft
Mostly Cloudy 3700 ft
Heat Index 75 °F
Dew Point 64 °F
Humidity 73%
Rainfall 0.20 in
Snow Depth Not available.
UV 5 out of 12
Pollen Not available.
Air Quality Not available.
Flu Activity Not available.
METAR LDRI 271030Z 15007KT 120V220 9999 -RA VCSH FEW013 FEW027TCU SCT027 BKN037 21/20 Q1010

More Conditions Fewer Conditions

10-Day Weather Forecast

Almanac

Astronomy

Aug. 27, 2014 Rise Set
Actual Time 6:17 AM CEST 7:50 PM CEST
Civil Twilight 5:46 AM CEST 8:21 PM CEST
Nautical Twilight 5:08 AM CEST 8:59 PM CEST
Astronomical Twilight 4:28 AM CEST 9:39 PM CEST
Moon 8:05 AM CEST 8:25 PM CEST
Length of Visible Light 14h 34m
Length of Day
13h 32m
Tomorrow will be 3m 1s shorter.
Waxing Crescent, 3% of the Moon is Illuminated
Today
Waxing Crescent
Sep 2
First Quarter
Sep 8
Full
Sep 15
Last Quarter
Sep 24
New

Yesterday's Extremes

Country Highs Country Lows

Community

WunderPhotos

Upload Photos

1,747,666 photos uploaded!

Nearby

Snow Depth

Not available.

Earthquake Activity

City Distance Mag. Time & Date
No recent earthquake activity has been reported nearby.
Minimum magnitude displayed is 2.5.

Coastal Water Temperatures

Place Temperature
No Stations Reporting

Nearby Weather Stations